TimeCST,TemperatureF,Dew PointF,Humidity,Sea Level PressureIn,VisibilityMPH,Wind Direction,Wind SpeedMPH,Gust SpeedMPH,PrecipitationIn,Events,Conditions,WindDirDegrees,DateUTC
12:13 AM,6.8,3.2,85,30.78,10.0,West,4.6,-,N/A,,Clear,280,2013-11-12 06:13:00
12:34 AM,8.6,3.2,79,30.79,10.0,West,5.8,-,N/A,,Clear,280,2013-11-12 06:34:00
12:54 AM,8.6,3.2,79,30.78,10.0,West,5.8,-,N/A,,Clear,280,2013-11-12 06:54:00
1:13 AM,8.6,3.2,79,30.77,10.0,West,5.8,-,N/A,,Clear,280,2013-11-12 07:13:00
1:34 AM,8.6,5.0,85,30.77,10.0,West,5.8,-,N/A,,Clear,270,2013-11-12 07:34:00
1:54 AM,8.6,5.0,85,30.77,10.0,West,4.6,-,N/A,,Clear,270,2013-11-12 07:54:00
2:13 AM,10.4,5.0,79,30.77,10.0,West,5.8,-,N/A,,Clear,270,2013-11-12 08:13:00
2:34 AM,8.6,3.2,79,30.78,10.0,West,3.5,-,N/A,,Clear,280,2013-11-12 08:34:00
2:54 AM,8.6,3.2,79,30.78,10.0,West,3.5,-,N/A,,Clear,280,2013-11-12 08:54:00
3:13 AM,8.6,3.2,79,30.78,10.0,WSW,3.5,-,N/A,,Clear,250,2013-11-12 09:13:00
3:34 AM,8.6,5.0,85,30.78,10.0,Calm,Calm,-,N/A,,Clear,0,2013-11-12 09:34:00
3:53 AM,8.6,5.0,85,30.78,10.0,WSW,3.5,-,N/A,,Clear,240,2013-11-12 09:53:00
4:13 AM,6.8,3.2,85,30.78,10.0,Calm,Calm,-,N/A,,Clear,0,2013-11-12 10:13:00
4:34 AM,8.6,3.2,79,30.79,10.0,WSW,3.5,-,N/A,,Clear,240,2013-11-12 10:34:00
4:53 AM,8.6,3.2,79,30.79,10.0,Calm,Calm,-,N/A,,Clear,0,2013-11-12 10:53:00
5:13 AM,6.8,3.2,85,30.78,10.0,SSW,3.5,-,N/A,,Clear,210,2013-11-12 11:13:00
5:34 AM,8.6,3.2,79,30.78,10.0,Calm,Calm,-,N/A,,Clear,0,2013-11-12 11:34:00
5:53 AM,6.8,3.2,85,30.77,10.0,SSW,4.6,-,N/A,,Clear,210,2013-11-12 11:53:00
6:13 AM,6.8,3.2,85,30.78,10.0,SW,3.5,-,N/A,,Clear,220,2013-11-12 12:13:00
6:34 AM,6.8,1.4,79,30.77,10.0,SSW,3.5,-,N/A,,Clear,210,2013-11-12 12:34:00
6:53 AM,8.6,3.2,79,30.76,10.0,SW,5.8,-,N/A,,Clear,220,2013-11-12 12:53:00
7:13 AM,6.8,3.2,85,30.76,10.0,SW,4.6,-,N/A,,Clear,220,2013-11-12 13:13:00
7:34 AM,8.6,5.0,85,30.76,10.0,SW,5.8,-,N/A,,Clear,220,2013-11-12 13:34:00
7:53 AM,10.4,6.8,85,30.76,10.0,SSW,4.6,-,N/A,,Clear,210,2013-11-12 13:53:00
8:13 AM,14.0,8.6,79,30.76,10.0,Calm,Calm,-,N/A,,Clear,0,2013-11-12 14:13:00
8:34 AM,15.8,10.4,79,30.76,10.0,SW,4.6,-,N/A,,Clear,230,2013-11-12 14:34:00
8:53 AM,17.6,12.2,79,30.76,10.0,WSW,6.9,-,N/A,,Clear,240,2013-11-12 14:53:00
9:14 AM,21.2,12.2,68,30.76,10.0,WSW,8.1,-,N/A,,Clear,240,2013-11-12 15:14:00
9:34 AM,23.0,12.2,63,30.75,10.0,SW,10.4,-,N/A,,Clear,230,2013-11-12 15:34:00
9:53 AM,24.8,12.2,59,30.74,10.0,WSW,9.2,-,N/A,,Clear,240,2013-11-12 15:53:00
10:14 AM,24.8,12.2,59,30.73,10.0,SW,10.4,-,N/A,,Clear,230,2013-11-12 16:14:00
10:34 AM,28.4,12.2,51,30.71,10.0,SW,9.2,-,N/A,,Clear,230,2013-11-12 16:34:00
10:53 AM,28.4,10.4,47,30.71,10.0,WSW,8.1,-,N/A,,Clear,240,2013-11-12 16:53:00
11:14 AM,30.2,8.6,40,30.70,10.0,WSW,8.1,-,N/A,,Clear,240,2013-11-12 17:14:00
11:34 AM,32.0,5.0,32,30.69,10.0,WSW,10.4,-,N/A,,Clear,240,2013-11-12 17:34:00
11:52 AM,32.0,8.6,38,30.68,10.0,SW,10.4,-,N/A,,Clear,220,2013-11-12 17:52:00
12:14 PM,33.8,8.6,35,30.66,10.0,SW,13.8,17.3,N/A,,Clear,220,2013-11-12 18:14:00
12:34 PM,33.8,6.8,32,30.64,10.0,SW,11.5,-,N/A,,Clear,220,2013-11-12 18:34:00
12:53 PM,35.6,6.8,30,30.63,10.0,SW,11.5,16.1,N/A,,Clear,230,2013-11-12 18:53:00
1:14 PM,35.6,5.0,28,30.61,10.0,SSW,11.5,16.1,N/A,,Clear,210,2013-11-12 19:14:00
1:34 PM,37.4,5.0,26,30.60,10.0,SSW,10.4,-,N/A,,Clear,210,2013-11-12 19:34:00
1:53 PM,37.4,3.2,24,30.59,10.0,SW,10.4,16.1,N/A,,Clear,230,2013-11-12 19:53:00
2:14 PM,37.4,3.2,24,30.58,10.0,SW,12.7,17.3,N/A,,Clear,230,2013-11-12 20:14:00
2:34 PM,39.2,3.2,22,30.56,10.0,SSW,10.4,-,N/A,,Clear,210,2013-11-12 20:34:00
2:54 PM,39.2,5.0,24,30.56,10.0,SW,13.8,-,N/A,,Clear,220,2013-11-12 20:54:00
3:14 PM,39.2,6.8,26,30.56,10.0,SSW,11.5,-,N/A,,Clear,210,2013-11-12 21:14:00
3:33 PM,37.4,6.8,28,30.55,10.0,SSW,10.4,-,N/A,,Clear,210,2013-11-12 21:33:00
3:54 PM,37.4,6.8,28,30.56,10.0,SW,11.5,-,N/A,,Clear,230,2013-11-12 21:54:00
4:14 PM,37.4,8.6,30,30.55,10.0,SSW,6.9,-,N/A,,Clear,200,2013-11-12 22:14:00
4:33 PM,35.6,8.6,33,30.55,10.0,SW,6.9,-,N/A,,Clear,220,2013-11-12 22:33:00
4:54 PM,32.0,10.4,41,30.54,10.0,SSW,6.9,-,N/A,,Clear,200,2013-11-12 22:54:00
5:14 PM,30.2,10.4,44,30.53,10.0,South,9.2,-,N/A,,Clear,190,2013-11-12 23:14:00
5:33 PM,28.4,12.2,51,30.53,10.0,South,8.1,-,N/A,,Clear,190,2013-11-12 23:33:00
5:54 PM,26.6,12.2,55,30.53,10.0,South,8.1,-,N/A,,Clear,180,2013-11-12 23:54:00
6:14 PM,28.4,15.8,59,30.52,10.0,South,9.2,-,N/A,,Clear,180,2013-11-13 00:14:00
6:33 PM,26.6,14.0,59,30.51,10.0,South,11.5,-,N/A,,Clear,180,2013-11-13 00:33:00
6:54 PM,26.6,14.0,59,30.49,10.0,South,9.2,-,N/A,,Clear,180,2013-11-13 00:54:00
7:13 PM,26.6,15.8,64,30.48,10.0,South,10.4,-,N/A,,Clear,170,2013-11-13 01:13:00
7:34 PM,26.6,15.8,64,30.47,10.0,South,9.2,-,N/A,,Clear,170,2013-11-13 01:34:00
7:53 PM,26.6,15.8,64,30.45,10.0,South,9.2,-,N/A,,Clear,170,2013-11-13 01:53:00
8:13 PM,26.6,15.8,64,30.44,10.0,South,10.4,-,N/A,,Clear,170,2013-11-13 02:13:00
8:34 PM,26.6,15.8,64,30.43,10.0,South,9.2,-,N/A,,Clear,170,2013-11-13 02:34:00
8:54 PM,24.8,15.8,69,30.42,10.0,South,8.1,-,N/A,,Clear,170,2013-11-13 02:54:00
9:13 PM,24.8,15.8,69,30.41,10.0,South,8.1,-,N/A,,Clear,180,2013-11-13 03:13:00
9:34 PM,24.8,15.8,69,30.41,10.0,South,6.9,-,N/A,,Clear,180,2013-11-13 03:34:00
9:54 PM,26.6,15.8,64,30.40,10.0,South,8.1,-,N/A,,Clear,190,2013-11-13 03:54:00
10:13 PM,24.8,14.0,64,30.39,10.0,South,6.9,-,N/A,,Clear,190,2013-11-13 04:13:00
10:34 PM,28.4,15.8,59,30.37,10.0,SSW,9.2,-,N/A,,Clear,200,2013-11-13 04:34:00
10:54 PM,30.2,17.6,60,30.36,10.0,South,6.9,-,N/A,,Clear,190,2013-11-13 04:54:00
11:13 PM,28.4,15.8,59,30.34,10.0,South,9.2,-,N/A,,Clear,180,2013-11-13 05:13:00
11:34 PM,28.4,15.8,59,30.33,10.0,South,9.2,-,N/A,,Clear,180,2013-11-13 05:34:00
11:54 PM,28.4,17.6,64,30.32,10.0,South,9.2,-,N/A,,Clear,180,2013-11-13 05:54:00